createdAt,value
2022-11-24T00:02:46.552Z,40.82
2022-11-24T00:07:52.479Z,36.36
2022-11-24T00:12:55.926Z,36.72
2022-11-24T00:18:00.645Z,38.16
2022-11-24T00:23:06.125Z,37.97
2022-11-24T00:28:09.546Z,39.43
2022-11-24T00:33:16.517Z,39.61
2022-11-24T00:38:21.958Z,40.92
2022-11-24T00:43:25.350Z,38.61
2022-11-24T00:48:30.075Z,41.50
2022-11-24T00:53:34.194Z,41.13
2022-11-24T00:58:40.674Z,39.92
2022-11-24T01:03:46.896Z,41.32
2022-11-24T01:08:50.372Z,43.13
2022-11-24T01:13:55.479Z,42.14
2022-11-24T01:19:00.371Z,42.23
2022-11-24T01:24:03.871Z,42.98
2022-11-24T01:29:07.528Z,42.17
2022-11-24T01:34:13.190Z,39.09
2022-11-24T01:39:18.793Z,39.22
2022-11-24T01:44:24.855Z,37.38
2022-11-24T01:49:37.297Z,36.10
2022-11-24T01:54:44.821Z,35.57
2022-11-24T01:59:53.516Z,33.82
2022-11-24T02:05:05.553Z,32.81
2022-11-24T02:10:13.120Z,32.62
2022-11-24T02:15:17.909Z,31.05
2022-11-24T02:20:24.663Z,30.19
2022-11-24T02:25:36.961Z,28.39
2022-11-24T02:30:41.986Z,29.18
2022-11-24T02:35:45.329Z,45.59
2022-11-24T02:40:53.350Z,29.33
2022-11-24T02:46:00.494Z,32.13
2022-11-24T02:51:04.843Z,30.43
2022-11-24T02:56:08.455Z,29.82
2022-11-24T03:01:13.158Z,27.83
2022-11-24T03:06:16.511Z,74.57
2022-11-24T03:11:19.825Z,27.17
2022-11-24T03:16:24.659Z,27.84
2022-11-24T03:21:30.624Z,29.41
2022-11-24T03:26:36.779Z,29.45
2022-11-24T03:31:41.521Z,29.23
2022-11-24T03:36:44.979Z,27.34
2022-11-24T03:41:48.322Z,27.70
2022-11-24T03:46:53.132Z,27.37
2022-11-24T03:52:02.572Z,26.81
2022-11-24T03:57:11.205Z,27.52
2022-11-24T04:02:16.016Z,28.92
2022-11-24T04:07:21.715Z,41.45
2022-11-24T04:12:42.741Z,27.62
2022-11-24T04:17:48.599Z,27.07
2022-11-24T04:22:52.366Z,27.26
2022-11-24T04:27:57.191Z,27.62
2022-11-24T04:33:01.884Z,27.98
2022-11-24T04:38:05.218Z,27.13
2022-11-24T04:43:12.202Z,31.48
2022-11-24T04:48:18.998Z,36.05
2022-11-24T04:53:25.324Z,35.23
2022-11-24T04:58:28.712Z,33.93
2022-11-24T05:03:33.519Z,33.81
2022-11-24T05:08:41.539Z,37.58
2022-11-24T05:13:45.049Z,34.99
2022-11-24T05:18:52.255Z,35.86
2022-11-24T05:24:00.360Z,33.43
2022-11-24T05:29:08.410Z,40.21
2022-11-24T05:34:15.717Z,37.86
2022-11-24T05:39:19.176Z,36.93
2022-11-24T05:44:24.763Z,37.80
2022-11-24T05:49:29.451Z,30.30
2022-11-24T05:54:34.158Z,30.28
2022-11-24T05:59:40.234Z,39.34
2022-11-24T06:04:49.922Z,41.16
2022-11-24T06:09:53.329Z,39.07
2022-11-24T06:15:01.682Z,38.00
2022-11-24T06:20:10.477Z,36.21
2022-11-24T06:25:13.960Z,35.64
2022-11-24T06:30:17.358Z,35.18
2022-11-24T06:35:22.227Z,36.62
2022-11-24T06:40:25.666Z,40.47
2022-11-24T06:45:29.565Z,38.85
2022-11-24T06:50:34.361Z,38.62
2022-11-24T06:55:37.813Z,44.47
2022-11-24T07:00:43.522Z,42.13
2022-11-24T07:05:48.442Z,43.99
2022-11-24T07:10:52.596Z,47.54
2022-11-24T07:15:58.345Z,47.77
2022-11-24T07:21:06.649Z,47.25
2022-11-24T07:26:10.371Z,45.55
2022-11-24T07:31:14.983Z,52.92
2022-11-24T07:36:19.951Z,54.97
2022-11-24T07:41:25.650Z,50.10
2022-11-24T07:46:29.076Z,43.48
2022-11-24T07:51:33.736Z,47.86
2022-11-24T07:56:37.023Z,43.98
2022-11-24T08:01:40.959Z,48.53
2022-11-24T08:06:48.212Z,41.34
2022-11-24T08:11:51.532Z,42.66
2022-11-24T08:16:57.177Z,42.28
2022-11-24T08:22:04.412Z,43.25
2022-11-24T08:27:10.154Z,41.41
2022-11-24T08:32:21.797Z,42.07
2022-11-24T08:37:27.704Z,42.70
2022-11-24T08:42:33.332Z,39.56
2022-11-24T08:47:39.335Z,38.76
2022-11-24T08:52:43.910Z,37.04
2022-11-24T08:57:47.192Z,39.19
2022-11-24T09:02:56.381Z,38.54
2022-11-24T09:08:06.120Z,40.08
2022-11-24T09:13:09.354Z,36.53
2022-11-24T09:18:12.766Z,38.56
2022-11-24T09:23:17.417Z,41.19
2022-11-24T09:28:20.779Z,40.44
2022-11-24T09:33:26.484Z,43.34
2022-11-24T09:38:31.456Z,42.97
2022-11-24T09:43:42.891Z,47.25
2022-11-24T09:48:51.704Z,42.30
2022-11-24T09:54:01.997Z,43.64
2022-11-24T09:59:11.847Z,44.81
2022-11-24T10:04:16.905Z,43.77
2022-11-24T10:09:33.711Z,44.73
2022-11-24T10:14:51.151Z,46.94
2022-11-24T10:20:02.124Z,47.13
2022-11-24T10:25:20.225Z,46.76
2022-11-24T10:30:25.588Z,49.45
2022-11-24T10:35:30.903Z,50.67
2022-11-24T10:40:57.732Z,51.67
2022-11-24T10:46:12.010Z,47.57
2022-11-24T10:51:33.705Z,45.97
2022-11-24T10:56:42.775Z,48.18
2022-11-24T11:01:46.176Z,49.30
2022-11-24T11:06:50.061Z,48.03
2022-11-24T11:11:55.557Z,48.59
2022-11-24T11:16:59.839Z,47.71
2022-11-24T11:22:04.768Z,46.15
2022-11-24T11:27:18.220Z,48.35
2022-11-24T11:37:52.230Z,48.03
2022-11-24T11:43:05.839Z,50.98
2022-11-24T11:48:23.329Z,48.83
2022-11-24T11:53:37.179Z,49.15
2022-11-24T11:58:55.735Z,48.04
2022-11-24T12:04:11.235Z,45.40
2022-11-24T12:09:26.119Z,49.74
2022-11-24T12:14:42.950Z,42.42
2022-11-24T12:19:56.403Z,40.76
2022-11-24T12:25:12.507Z,42.92
2022-11-24T12:30:20.661Z,44.52
2022-11-24T12:35:34.389Z,48.40
2022-11-24T12:40:50.990Z,44.29
2022-11-24T12:46:00.473Z,43.44
2022-11-24T12:51:11.904Z,44.10
2022-11-24T12:56:22.935Z,53.89
2022-11-24T13:01:33.420Z,62.51
2022-11-24T13:06:49.375Z,46.13
2022-11-24T13:11:57.816Z,47.71
2022-11-24T13:17:42.004Z,61.50
2022-11-24T13:22:50.686Z,51.46
2022-11-24T13:27:59.597Z,40.04
2022-11-24T13:33:21.664Z,40.34
2022-11-24T13:38:41.356Z,45.73
2022-11-24T13:43:59.526Z,40.68
2022-11-24T13:49:14.723Z,41.69
2022-11-24T13:54:18.320Z,42.35
2022-11-24T13:59:33.260Z,42.97
2022-11-24T14:04:39.580Z,53.94
2022-11-24T14:09:45.135Z,54.33
2022-11-24T14:14:51.748Z,55.78
2022-11-24T14:19:57.602Z,57.57
2022-11-24T14:25:03.800Z,60.75
2022-11-24T14:30:19.458Z,58.89
2022-11-24T14:35:27.763Z,68.65
2022-11-24T14:40:41.905Z,59.28
2022-11-24T14:45:55.835Z,57.53
2022-11-24T14:51:12.613Z,68.00
2022-11-24T14:56:24.120Z,60.62
2022-11-24T15:01:32.743Z,65.68
2022-11-24T15:06:37.701Z,67.35
2022-11-24T15:11:43.499Z,61.86
2022-11-24T15:16:48.976Z,63.17
2022-11-24T15:21:56.220Z,70.79
2022-11-24T15:27:02.296Z,76.16
2022-11-24T15:32:14.298Z,70.12
2022-11-24T15:37:19.119Z,69.25
2022-11-24T15:42:22.437Z,62.85
2022-11-24T15:47:27.882Z,59.63
2022-11-24T15:52:32.621Z,57.21
2022-11-24T15:57:39.405Z,56.19
2022-11-24T16:02:42.757Z,53.75
2022-11-24T16:07:47.908Z,52.33
2022-11-24T16:12:53.424Z,50.82
2022-11-24T16:17:56.768Z,45.95
2022-11-24T16:23:04.376Z,45.84
2022-11-24T16:28:10.157Z,49.99
2022-11-24T16:33:13.459Z,55.19
2022-11-24T16:38:18.680Z,59.56
2022-11-24T16:43:25.415Z,66.24
2022-11-24T16:48:36.415Z,62.99
2022-11-24T16:53:43.984Z,60.67
2022-11-24T16:58:51.698Z,58.56
2022-11-24T17:03:55.164Z,61.02
2022-11-24T17:08:59.795Z,66.61
2022-11-24T17:14:03.171Z,67.03
2022-11-24T17:19:07.072Z,63.90
2022-11-24T17:24:15.616Z,63.58
2022-11-24T17:29:19.457Z,66.16
2022-11-24T17:34:22.732Z,65.79
2022-11-24T17:39:29.501Z,63.95
2022-11-24T17:44:33.714Z,57.54
2022-11-24T17:49:37.291Z,58.46
2022-11-24T17:54:46.712Z,61.39
2022-11-24T17:59:53.100Z,65.59
2022-11-24T18:05:01.398Z,72.56
2022-11-24T18:10:09.242Z,72.79
2022-11-24T18:15:12.771Z,62.38
2022-11-24T18:20:16.267Z,62.43
2022-11-24T18:25:21.136Z,62.93
2022-11-24T18:30:24.545Z,60.24
2022-11-24T18:35:27.920Z,63.44
2022-11-24T18:40:32.741Z,64.15
2022-11-24T18:45:39.144Z,62.43
2022-11-24T18:50:42.667Z,65.86
2022-11-24T18:55:54.406Z,62.42
2022-11-24T19:01:07.097Z,66.95
2022-11-24T19:06:14.311Z,64.32
2022-11-24T19:11:20.628Z,68.66
2022-11-24T19:16:24.862Z,70.25
2022-11-24T19:21:31.730Z,74.55
2022-11-24T19:26:38.679Z,74.77
2022-11-24T19:31:44.388Z,75.63
2022-11-24T19:36:47.771Z,75.25
2022-11-24T19:41:53.077Z,75.87
2022-11-24T19:46:56.630Z,72.24
2022-11-24T19:52:00.110Z,74.08
2022-11-24T19:57:07.332Z,81.80
2022-11-24T20:02:13.118Z,80.87
2022-11-24T20:07:20.492Z,80.07
2022-11-24T20:12:25.113Z,76.73
2022-11-24T20:17:30.069Z,74.65
2022-11-24T20:22:34.718Z,73.28
2022-11-24T20:27:39.451Z,80.33
2022-11-24T20:32:45.268Z,72.79
2022-11-24T20:37:50.755Z,74.55
2022-11-24T20:42:57.740Z,77.21
2022-11-24T20:48:01.102Z,76.33
2022-11-24T20:53:04.487Z,69.71
2022-11-24T20:58:09.334Z,67.01
2022-11-24T21:03:14.801Z,61.11
2022-11-24T21:08:19.435Z,59.56
2022-11-24T21:13:24.389Z,63.12
2022-11-24T21:18:30.170Z,61.93
2022-11-24T21:23:33.537Z,71.80
2022-11-24T21:28:38.481Z,74.18
2022-11-24T21:33:42.238Z,78.12
2022-11-24T21:38:50.620Z,76.89
2022-11-24T21:43:56.510Z,70.98
2022-11-24T21:48:59.860Z,81.42
2022-11-24T21:54:03.252Z,112.89
2022-11-24T21:59:08.286Z,88.22
2022-11-24T22:04:14.222Z,71.67
2022-11-24T22:09:20.226Z,71.83
2022-11-24T22:14:25.174Z,68.39
2022-11-24T22:19:28.395Z,65.39
2022-11-24T22:24:31.756Z,68.47
2022-11-24T22:29:36.407Z,65.64
2022-11-24T22:34:41.886Z,66.16
2022-11-24T22:39:45.130Z,64.22
2022-11-24T22:44:49.672Z,65.48
2022-11-24T22:49:55.297Z,64.31
2022-11-24T22:54:58.538Z,69.07
2022-11-24T23:00:03.203Z,67.31
2022-11-24T23:05:06.732Z,70.76
2022-11-24T23:10:10.275Z,71.21
2022-11-24T23:15:15.000Z,74.06
2022-11-24T23:20:18.418Z,68.04
2022-11-24T23:25:24.003Z,67.49
2022-11-24T23:30:28.634Z,71.72
2022-11-24T23:35:34.287Z,73.47
2022-11-24T23:40:39.866Z,72.90
2022-11-24T23:45:44.685Z,72.01
2022-11-24T23:50:50.214Z,77.40
2022-11-24T23:55:54.870Z,70.23
